createdAt,value
2022-11-25T00:02:22.885Z,0.52
2022-11-25T00:04:51.959Z,0.30
2022-11-25T00:07:19.625Z,0.40
2022-11-25T00:09:47.251Z,0.35
2022-11-25T00:12:14.891Z,0.30
2022-11-25T00:14:42.502Z,0.32
2022-11-25T00:17:10.165Z,0.22
2022-11-25T00:19:37.781Z,0.50
2022-11-25T00:22:06.739Z,0.30
2022-11-25T00:24:34.726Z,0.70
2022-11-25T00:27:04.941Z,0.45
2022-11-25T00:29:32.726Z,0.30
2022-11-25T00:32:00.390Z,0.10
2022-11-25T00:34:28.261Z,0.45
2022-11-25T00:36:56.539Z,0.50
2022-11-25T00:39:27.084Z,0.60
2022-11-25T00:42:12.049Z,0.75
2022-11-25T00:44:41.077Z,0.50
2022-11-25T00:47:10.751Z,0.50
2022-11-25T00:49:38.998Z,0.40
2022-11-25T00:52:07.288Z,0.93
2022-11-25T00:54:36.415Z,0.60
2022-11-25T00:57:04.247Z,0.40
2022-11-25T00:59:31.875Z,0.57
2022-11-25T01:01:59.594Z,0.90
2022-11-25T01:04:27.248Z,0.50
2022-11-25T01:06:56.895Z,0.60
2022-11-25T01:09:24.618Z,0.60
2022-11-25T01:11:53.994Z,1.27
2022-11-25T01:14:22.160Z,0.90
2022-11-25T01:16:49.991Z,0.30
2022-11-25T01:19:18.367Z,0.68
2022-11-25T01:21:46.027Z,1.13
2022-11-25T01:24:14.469Z,0.77
2022-11-25T01:26:42.203Z,1.05
2022-11-25T01:29:13.997Z,1.10
2022-11-25T01:31:42.182Z,1.30
2022-11-25T01:34:12.759Z,1.38
2022-11-25T01:36:40.416Z,1.13
2022-11-25T01:39:08.049Z,1.27
2022-11-25T01:41:36.499Z,1.23
2022-11-25T01:44:08.217Z,1.30
2022-11-25T01:46:43.185Z,1.40
2022-11-25T01:49:13.926Z,1.85
2022-11-25T01:51:42.560Z,1.15
2022-11-25T01:54:12.067Z,1.30
2022-11-25T01:56:41.905Z,0.80
2022-11-25T01:59:09.677Z,1.63
2022-11-25T02:01:37.420Z,0.80
2022-11-25T02:04:07.107Z,0.95
2022-11-25T02:06:37.037Z,1.13
2022-11-25T02:09:06.047Z,0.90
2022-11-25T02:11:34.899Z,1.40
2022-11-25T02:14:03.686Z,1.02
2022-11-25T02:16:31.410Z,1.20
2022-11-25T02:18:59.249Z,0.98
2022-11-25T02:21:32.217Z,1.20
2022-11-25T02:24:03.122Z,1.00
2022-11-25T02:26:32.213Z,1.10
2022-11-25T02:28:59.912Z,1.63
2022-11-25T02:31:27.767Z,1.27
2022-11-25T02:33:55.502Z,1.23
2022-11-25T02:36:23.911Z,1.17
2022-11-25T02:38:54.322Z,1.30
2022-11-25T02:41:23.933Z,1.40
2022-11-25T02:43:52.903Z,1.67
2022-11-25T02:46:22.627Z,1.23
2022-11-25T02:49:08.444Z,1.13
2022-11-25T02:51:37.627Z,1.80
2022-11-25T02:54:05.497Z,2.28
2022-11-25T02:56:33.919Z,1.98
2022-11-25T02:59:02.961Z,2.00
2022-11-25T03:01:31.371Z,2.15
2022-11-25T03:03:59.552Z,2.20
2022-11-25T03:06:27.370Z,2.58
2022-11-25T03:08:55.026Z,2.15
2022-11-25T03:11:42.661Z,2.53
2022-11-25T03:14:11.633Z,1.58
2022-11-25T03:16:39.406Z,2.33
2022-11-25T03:19:08.502Z,1.90
2022-11-25T03:21:36.240Z,1.80
2022-11-25T03:24:03.874Z,2.97
2022-11-25T03:26:31.837Z,2.05
2022-11-25T03:28:59.463Z,1.95
2022-11-25T03:31:28.451Z,1.80
2022-11-25T03:33:56.606Z,2.42
2022-11-25T03:36:24.272Z,2.67
2022-11-25T03:38:51.914Z,1.80
2022-11-25T03:41:19.559Z,2.10
2022-11-25T03:43:47.271Z,1.65
2022-11-25T03:46:14.913Z,2.25
2022-11-25T03:48:43.924Z,2.25
2022-11-25T03:51:11.543Z,2.58
2022-11-25T03:53:39.288Z,2.38
2022-11-25T03:56:07.174Z,2.55
2022-11-25T03:58:35.116Z,2.47
2022-11-25T04:01:03.057Z,2.67
2022-11-25T04:03:31.229Z,2.70
2022-11-25T04:06:00.309Z,3.53
2022-11-25T04:08:28.378Z,2.60
2022-11-25T04:10:56.007Z,2.42
2022-11-25T04:13:22.804Z,2.40
2022-11-25T04:15:51.516Z,2.10
2022-11-25T04:18:19.907Z,3.13
2022-11-25T04:20:47.955Z,2.22
2022-11-25T04:23:16.992Z,2.83
2022-11-25T04:25:44.804Z,2.70
2022-11-25T04:28:12.458Z,2.45
2022-11-25T04:30:40.387Z,1.98
2022-11-25T04:33:08.036Z,2.50
2022-11-25T04:35:35.745Z,2.78
2022-11-25T04:38:03.434Z,2.25
2022-11-25T04:40:32.379Z,1.88
2022-11-25T04:43:06.099Z,2.90
2022-11-25T04:45:58.700Z,2.88
2022-11-25T04:48:24.868Z,2.22
2022-11-25T04:50:52.442Z,2.40
2022-11-25T04:53:20.133Z,2.95
2022-11-25T04:55:49.144Z,2.33
2022-11-25T04:58:37.816Z,2.65
2022-11-25T05:01:04.495Z,2.08
2022-11-25T05:03:32.228Z,2.75
2022-11-25T05:05:59.906Z,2.50
2022-11-25T05:08:27.557Z,2.85
2022-11-25T05:10:56.519Z,2.42
2022-11-25T05:13:24.360Z,2.60
2022-11-25T05:15:52.085Z,2.45
2022-11-25T05:18:19.789Z,3.60
2022-11-25T05:20:47.413Z,3.38
2022-11-25T05:23:14.981Z,3.40
2022-11-25T05:25:42.581Z,3.95
2022-11-25T05:28:11.569Z,6.55
2022-11-25T05:30:39.347Z,4.55
2022-11-25T05:33:07.017Z,6.78
2022-11-25T05:35:34.617Z,4.70
2022-11-25T05:38:04.107Z,5.45
2022-11-25T05:40:32.368Z,5.28
2022-11-25T05:43:01.209Z,4.95
2022-11-25T05:45:30.169Z,4.32
2022-11-25T05:47:57.892Z,3.85
2022-11-25T05:50:25.706Z,3.22
2022-11-25T05:52:53.313Z,2.85
2022-11-25T05:55:20.923Z,3.67
2022-11-25T05:57:48.741Z,2.22
2022-11-25T06:00:16.618Z,2.50
2022-11-25T06:02:45.699Z,2.50
2022-11-25T06:05:13.476Z,2.92
2022-11-25T06:07:41.488Z,2.15
2022-11-25T06:10:09.788Z,2.10
2022-11-25T06:12:37.503Z,2.25
2022-11-25T06:15:06.077Z,2.03
2022-11-25T06:17:33.686Z,2.38
2022-11-25T06:20:02.641Z,1.98
2022-11-25T06:22:30.331Z,2.58
2022-11-25T06:25:03.254Z,2.22
2022-11-25T06:27:50.179Z,2.20
2022-11-25T06:30:19.827Z,2.08
2022-11-25T06:32:47.464Z,2.03
2022-11-25T06:35:16.860Z,2.22
2022-11-25T06:37:44.573Z,2.33
2022-11-25T06:40:12.685Z,2.47
2022-11-25T06:42:43.673Z,2.75
2022-11-25T06:45:11.729Z,2.95
2022-11-25T06:47:39.364Z,2.80
2022-11-25T06:50:07.743Z,3.75
2022-11-25T06:52:36.784Z,2.33
2022-11-25T06:55:04.761Z,2.45
2022-11-25T06:57:32.560Z,2.78
2022-11-25T07:00:00.205Z,2.60
2022-11-25T07:02:27.869Z,2.35
2022-11-25T07:04:55.635Z,3.10
2022-11-25T07:07:23.363Z,3.03
2022-11-25T07:09:52.470Z,2.97
2022-11-25T07:12:20.041Z,3.13
2022-11-25T07:14:51.020Z,2.97
2022-11-25T07:17:18.739Z,3.28
2022-11-25T07:19:46.397Z,4.00
2022-11-25T07:22:14.033Z,3.00
2022-11-25T07:24:41.694Z,4.47
2022-11-25T07:27:10.892Z,3.15
2022-11-25T07:32:26.179Z,3.78
2022-11-25T07:34:53.835Z,4.25
2022-11-25T07:37:21.459Z,3.20
2022-11-25T07:39:49.095Z,4.35
2022-11-25T07:42:18.044Z,3.78
2022-11-25T07:44:45.700Z,4.53
2022-11-25T07:47:13.473Z,6.53
2022-11-25T07:49:41.139Z,3.03
2022-11-25T07:52:08.736Z,3.95
2022-11-25T07:54:36.421Z,3.92
2022-11-25T07:57:04.197Z,4.07
2022-11-25T07:59:33.156Z,3.33
2022-11-25T08:02:01.090Z,2.85
2022-11-25T08:04:28.920Z,4.47
2022-11-25T08:06:56.710Z,4.65
2022-11-25T08:09:25.281Z,3.75
2022-11-25T08:11:52.971Z,3.20
2022-11-25T08:14:20.806Z,3.00
2022-11-25T08:16:49.797Z,3.33
2022-11-25T08:19:17.750Z,3.15
2022-11-25T08:21:47.797Z,2.17
2022-11-25T08:24:16.993Z,2.80
2022-11-25T08:26:44.596Z,2.70
2022-11-25T08:29:13.927Z,3.03
2022-11-25T08:31:42.675Z,2.42
2022-11-25T08:34:12.501Z,2.65
2022-11-25T08:36:45.075Z,2.80
2022-11-25T08:42:04.480Z,3.67
2022-11-25T08:44:32.205Z,3.20
2022-11-25T08:47:00.184Z,3.03
2022-11-25T08:49:31.170Z,2.33
2022-11-25T08:52:01.411Z,3.20
2022-11-25T08:54:29.014Z,2.50
2022-11-25T08:56:56.803Z,2.53
2022-11-25T08:59:25.271Z,1.85
2022-11-25T09:01:53.099Z,2.47
2022-11-25T09:04:20.772Z,2.05
2022-11-25T09:06:49.756Z,2.67
2022-11-25T09:09:17.448Z,2.38
2022-11-25T09:11:45.186Z,2.60
2022-11-25T09:14:13.227Z,1.63
2022-11-25T09:16:40.962Z,5.03
2022-11-25T09:19:08.770Z,3.75
2022-11-25T09:21:36.466Z,2.00
2022-11-25T09:24:05.463Z,2.42
2022-11-25T09:26:35.682Z,2.42
2022-11-25T09:29:03.468Z,2.08
2022-11-25T09:31:31.186Z,2.35
2022-11-25T09:33:58.985Z,3.35
2022-11-25T09:36:26.773Z,2.80
2022-11-25T09:38:54.419Z,2.20
2022-11-25T09:41:55.546Z,2.42
2022-11-25T09:44:46.865Z,3.47
2022-11-25T09:47:19.256Z,3.47
2022-11-25T09:49:56.032Z,3.10
2022-11-25T09:52:27.321Z,4.07
2022-11-25T09:54:58.211Z,3.63
2022-11-25T09:57:31.234Z,2.95
2022-11-25T10:00:04.105Z,5.25
2022-11-25T10:02:36.320Z,4.32
2022-11-25T10:05:07.236Z,3.53
2022-11-25T10:07:37.077Z,3.63
2022-11-25T10:10:05.911Z,3.13
2022-11-25T10:12:36.041Z,4.13
2022-11-25T10:15:04.967Z,3.75
2022-11-25T10:17:39.062Z,3.28
2022-11-25T10:20:09.151Z,3.72
2022-11-25T10:22:39.075Z,2.90
2022-11-25T10:25:13.462Z,3.30
2022-11-25T10:27:45.663Z,2.63
2022-11-25T10:30:16.640Z,2.72
2022-11-25T10:32:46.620Z,3.38
2022-11-25T10:35:20.501Z,3.10
2022-11-25T10:37:48.973Z,3.75
2022-11-25T10:40:18.230Z,3.08
2022-11-25T10:42:47.258Z,3.03
2022-11-25T10:45:15.014Z,2.85
2022-11-25T10:47:54.152Z,2.75
2022-11-25T10:50:25.772Z,2.42
2022-11-25T10:52:58.372Z,3.08
2022-11-25T10:55:26.859Z,2.25
2022-11-25T10:57:56.490Z,2.78
2022-11-25T11:00:32.026Z,2.42
2022-11-25T11:03:01.112Z,2.88
2022-11-25T11:05:29.942Z,3.13
2022-11-25T11:08:15.508Z,2.67
2022-11-25T11:10:43.285Z,3.00
2022-11-25T11:13:21.838Z,3.25
2022-11-25T11:15:49.616Z,3.22
2022-11-25T11:18:22.984Z,2.70
2022-11-25T11:20:52.837Z,4.40
2022-11-25T11:23:20.626Z,2.53
2022-11-25T11:25:56.698Z,2.42
2022-11-25T11:28:32.874Z,2.30
2022-11-25T11:31:02.286Z,3.47
2022-11-25T11:33:31.898Z,2.70
2022-11-25T11:36:04.033Z,3.05
2022-11-25T11:38:33.757Z,3.33
2022-11-25T11:41:15.388Z,2.58
2022-11-25T11:43:54.420Z,2.85
2022-11-25T11:46:28.527Z,2.05
2022-11-25T11:49:02.256Z,2.85
2022-11-25T11:51:34.618Z,2.03
2022-11-25T11:54:07.899Z,2.85
2022-11-25T11:56:38.759Z,3.03
2022-11-25T11:59:17.439Z,2.70
2022-11-25T12:01:49.695Z,2.15
2022-11-25T12:04:20.840Z,1.85
2022-11-25T12:06:54.360Z,2.53
2022-11-25T12:09:22.935Z,2.17
2022-11-25T12:11:54.824Z,2.60
2022-11-25T12:14:32.007Z,2.25
2022-11-25T12:17:00.743Z,2.42
2022-11-25T12:19:33.609Z,2.33
2022-11-25T12:22:03.497Z,2.55
2022-11-25T12:24:36.057Z,2.53
2022-11-25T12:27:06.422Z,2.38
2022-11-25T12:29:38.334Z,2.85
2022-11-25T12:32:13.433Z,3.20
2022-11-25T12:34:44.621Z,2.40
2022-11-25T12:37:15.467Z,2.45
2022-11-25T12:39:45.980Z,2.38
2022-11-25T12:42:16.034Z,3.05
2022-11-25T12:44:49.824Z,2.10
2022-11-25T12:47:17.505Z,2.30
2022-11-25T12:49:46.532Z,2.72
2022-11-25T12:52:27.600Z,2.38
2022-11-25T12:55:03.661Z,1.83
2022-11-25T12:57:49.432Z,2.95
2022-11-25T13:03:23.852Z,3.17
2022-11-25T13:05:58.711Z,2.55
2022-11-25T13:08:32.076Z,2.70
2022-11-25T13:11:07.119Z,2.78
2022-11-25T13:16:05.692Z,2.00
2022-11-25T13:18:34.383Z,3.83
2022-11-25T13:21:07.528Z,3.10
2022-11-25T13:23:48.771Z,2.70
2022-11-25T13:26:37.017Z,2.10
2022-11-25T13:29:28.401Z,3.20
2022-11-25T13:31:59.646Z,2.75
2022-11-25T13:34:29.073Z,3.00
2022-11-25T13:36:57.445Z,2.55
2022-11-25T13:39:30.590Z,2.38
2022-11-25T13:42:02.851Z,2.75
2022-11-25T13:44:32.677Z,2.35
2022-11-25T13:47:22.117Z,3.50
2022-11-25T13:49:53.467Z,1.90
2022-11-25T13:52:32.149Z,3.03
2022-11-25T13:55:00.748Z,2.20
2022-11-25T13:57:29.490Z,2.40
2022-11-25T13:59:59.022Z,3.13
2022-11-25T14:02:35.900Z,2.42
2022-11-25T14:05:05.975Z,4.05
2022-11-25T14:07:36.668Z,3.42
2022-11-25T14:10:11.497Z,2.80
2022-11-25T14:12:53.617Z,2.45
2022-11-25T14:15:39.684Z,2.60
2022-11-25T14:18:18.098Z,2.78
2022-11-25T14:20:49.282Z,2.38
2022-11-25T14:23:30.376Z,2.72
2022-11-25T14:26:04.116Z,2.80
2022-11-25T14:28:37.867Z,3.00
2022-11-25T14:31:08.129Z,2.80
2022-11-25T14:33:39.563Z,2.85
2022-11-25T14:36:10.543Z,2.63
2022-11-25T14:38:39.852Z,3.92
2022-11-25T14:41:09.461Z,2.63
2022-11-25T14:43:39.940Z,2.45
2022-11-25T14:46:11.933Z,2.92
2022-11-25T14:48:40.988Z,2.08
2022-11-25T14:51:09.849Z,2.67
2022-11-25T14:53:46.159Z,2.58
2022-11-25T14:56:16.711Z,2.50
2022-11-25T14:58:47.694Z,3.20
2022-11-25T15:01:18.936Z,1.80
2022-11-25T15:03:49.088Z,3.45
2022-11-25T15:06:16.938Z,2.10
2022-11-25T15:08:45.413Z,2.20
2022-11-25T15:11:15.258Z,3.40
2022-11-25T15:13:44.003Z,3.10
2022-11-25T15:16:13.312Z,2.58
2022-11-25T15:18:46.145Z,2.97
2022-11-25T15:21:15.898Z,2.95
2022-11-25T15:23:43.702Z,2.58
2022-11-25T15:26:17.279Z,6.68
2022-11-25T15:28:45.080Z,5.00
2022-11-25T15:31:16.919Z,5.45
2022-11-25T15:33:44.793Z,4.57
2022-11-25T15:36:12.594Z,6.97
2022-11-25T15:38:42.768Z,4.25
2022-11-25T15:41:17.121Z,3.90
2022-11-25T15:43:46.575Z,3.47
2022-11-25T15:46:14.435Z,3.85
2022-11-25T15:48:45.232Z,3.47
2022-11-25T15:51:20.359Z,3.72
2022-11-25T15:53:52.554Z,2.90
2022-11-25T15:56:21.943Z,3.05
2022-11-25T15:58:49.659Z,3.80
2022-11-25T16:01:22.527Z,3.67
2022-11-25T16:03:51.140Z,4.32
2022-11-25T16:06:20.846Z,4.38
2022-11-25T16:08:54.662Z,4.68
2022-11-25T16:11:23.501Z,6.22
2022-11-25T16:13:52.220Z,3.88
2022-11-25T16:16:21.276Z,3.72
2022-11-25T16:19:07.146Z,4.95
2022-11-25T16:24:14.904Z,4.70
2022-11-25T16:26:50.441Z,4.97
2022-11-25T16:29:19.154Z,5.15
2022-11-25T16:31:46.881Z,5.97
2022-11-25T16:34:15.501Z,8.02
2022-11-25T16:36:43.682Z,5.88
2022-11-25T16:39:12.786Z,6.07
2022-11-25T16:41:41.755Z,5.45
2022-11-25T16:44:15.971Z,5.32
2022-11-25T16:46:43.627Z,4.10
2022-11-25T16:49:14.109Z,4.40
2022-11-25T16:51:41.880Z,3.60
2022-11-25T16:54:09.682Z,3.42
2022-11-25T16:56:39.879Z,4.20
2022-11-25T16:59:12.201Z,4.03
2022-11-25T17:01:39.902Z,2.85
2022-11-25T17:04:08.190Z,3.40
2022-11-25T17:06:37.358Z,3.08
2022-11-25T17:09:05.164Z,3.42
2022-11-25T17:11:34.687Z,3.65
2022-11-25T17:14:04.833Z,3.35
2022-11-25T17:16:32.681Z,3.55
2022-11-25T17:19:01.208Z,3.70
2022-11-25T17:21:29.186Z,4.18
2022-11-25T17:23:59.633Z,4.68
2022-11-25T17:26:28.139Z,3.15
2022-11-25T17:28:56.822Z,3.25
2022-11-25T17:31:27.361Z,3.85
2022-11-25T17:33:55.068Z,3.35
2022-11-25T17:36:23.130Z,2.78
2022-11-25T17:38:50.950Z,3.28
2022-11-25T17:41:19.813Z,3.83
2022-11-25T17:43:48.432Z,3.25
2022-11-25T17:46:17.241Z,3.03
2022-11-25T17:48:46.416Z,3.70
2022-11-25T17:51:15.450Z,3.28
2022-11-25T17:53:43.077Z,3.72
2022-11-25T17:56:17.929Z,3.53
2022-11-25T17:58:45.672Z,3.92
2022-11-25T18:01:13.394Z,4.18
2022-11-25T18:03:41.047Z,3.80
2022-11-25T18:06:10.147Z,4.45
2022-11-25T18:08:37.779Z,5.75
2022-11-25T18:11:06.595Z,4.22
2022-11-25T18:13:36.924Z,5.53
2022-11-25T18:16:04.708Z,5.47
2022-11-25T18:18:32.495Z,4.43
2022-11-25T18:21:00.134Z,5.85
2022-11-25T18:23:29.164Z,5.22
2022-11-25T18:25:58.278Z,5.78
2022-11-25T18:28:26.957Z,4.85
2022-11-25T18:30:57.193Z,5.25
2022-11-25T18:33:24.881Z,6.65
2022-11-25T18:35:52.495Z,4.47
2022-11-25T18:38:20.209Z,6.25
2022-11-25T18:40:53.557Z,5.10
2022-11-25T18:43:25.080Z,5.30
2022-11-25T18:45:53.821Z,5.90
2022-11-25T18:48:22.632Z,7.65
2022-11-25T18:50:50.860Z,5.60
2022-11-25T18:53:18.550Z,4.75
2022-11-25T18:55:46.432Z,5.47
2022-11-25T18:58:17.852Z,6.15
2022-11-25T19:00:48.391Z,5.22
2022-11-25T19:03:18.054Z,5.40
2022-11-25T19:05:45.721Z,5.47
2022-11-25T19:08:13.434Z,5.28
2022-11-25T19:10:41.849Z,5.43
2022-11-25T19:13:16.866Z,5.50
2022-11-25T19:15:46.458Z,4.88
2022-11-25T19:18:16.484Z,5.22
2022-11-25T19:20:44.131Z,5.47
2022-11-25T19:23:18.161Z,4.85
2022-11-25T19:25:46.319Z,5.47
2022-11-25T19:28:16.225Z,5.43
2022-11-25T19:30:44.193Z,5.28
2022-11-25T19:33:16.301Z,5.30
2022-11-25T19:35:44.151Z,4.65
2022-11-25T19:38:14.626Z,5.18
2022-11-25T19:40:42.269Z,4.70
2022-11-25T19:43:09.878Z,5.18
2022-11-25T19:45:37.743Z,5.32
2022-11-25T19:48:07.161Z,5.43
2022-11-25T19:50:38.722Z,5.78
2022-11-25T19:53:06.488Z,5.65
2022-11-25T19:55:34.724Z,6.10
2022-11-25T19:58:02.735Z,4.20
2022-11-25T20:00:30.421Z,7.85
2022-11-25T20:02:58.119Z,6.03
2022-11-25T20:05:28.466Z,5.82
2022-11-25T20:07:57.498Z,6.40
2022-11-25T20:10:26.253Z,5.05
2022-11-25T20:12:54.187Z,5.72
2022-11-25T20:15:22.731Z,5.13
2022-11-25T20:17:51.598Z,4.88
2022-11-25T20:20:20.798Z,6.15
2022-11-25T20:22:52.301Z,6.47
2022-11-25T20:25:21.478Z,5.93
2022-11-25T20:27:49.611Z,5.03
2022-11-25T20:30:18.380Z,6.10
2022-11-25T20:32:47.491Z,6.28
2022-11-25T20:35:15.292Z,5.95
2022-11-25T20:37:53.915Z,5.38
2022-11-25T20:40:24.689Z,6.72
2022-11-25T20:42:52.778Z,6.25
2022-11-25T20:45:21.348Z,5.70
2022-11-25T20:47:51.021Z,5.00
2022-11-25T20:50:19.695Z,5.68
2022-11-25T20:52:47.769Z,7.05
2022-11-25T20:55:16.650Z,6.50
2022-11-25T20:57:45.573Z,6.63
2022-11-25T21:00:17.190Z,7.20
2022-11-25T21:02:44.962Z,5.65
2022-11-25T21:05:12.984Z,6.40
2022-11-25T21:07:40.820Z,6.82
2022-11-25T21:10:18.405Z,6.15
2022-11-25T21:12:47.382Z,6.45
2022-11-25T21:15:16.008Z,6.57
2022-11-25T21:17:43.962Z,5.97
2022-11-25T21:20:12.459Z,6.78
2022-11-25T21:22:43.398Z,7.22
2022-11-25T21:25:12.560Z,7.40
2022-11-25T21:27:40.498Z,6.80
2022-11-25T21:30:17.652Z,7.20
2022-11-25T21:32:45.386Z,6.32
2022-11-25T21:35:13.296Z,5.82
2022-11-25T21:37:42.246Z,6.07
2022-11-25T21:40:17.464Z,6.97
2022-11-25T21:42:45.156Z,5.60
2022-11-25T21:45:15.420Z,5.90
2022-11-25T21:47:44.536Z,5.93
2022-11-25T21:50:14.501Z,7.15
2022-11-25T21:52:42.133Z,6.80
2022-11-25T21:55:10.195Z,7.18
2022-11-25T21:57:38.067Z,6.43
2022-11-25T22:00:06.859Z,6.28
2022-11-25T22:02:34.540Z,6.53
2022-11-25T22:05:03.616Z,6.70
2022-11-25T22:07:31.371Z,6.28
2022-11-25T22:09:59.290Z,5.72
2022-11-25T22:12:28.612Z,6.63
2022-11-25T22:14:56.418Z,6.60
2022-11-25T22:17:24.426Z,7.78
2022-11-25T22:19:52.135Z,7.53
2022-11-25T22:22:21.330Z,6.50
2022-11-25T22:24:49.020Z,7.55
2022-11-25T22:27:19.904Z,7.40
2022-11-25T22:29:48.084Z,5.78
2022-11-25T22:32:16.351Z,7.00
2022-11-25T22:34:44.273Z,6.03
2022-11-25T22:37:17.005Z,7.40
2022-11-25T22:39:46.307Z,6.55
2022-11-25T22:42:17.102Z,7.22
2022-11-25T22:44:46.814Z,6.30
2022-11-25T22:47:16.953Z,7.13
2022-11-25T22:49:46.593Z,7.15
2022-11-25T22:52:18.430Z,6.50
2022-11-25T22:54:47.453Z,7.22
2022-11-25T22:57:15.113Z,7.03
2022-11-25T22:59:43.246Z,8.77
2022-11-25T23:02:16.361Z,8.25
2022-11-25T23:04:44.042Z,7.05
2022-11-25T23:07:13.017Z,6.93
2022-11-25T23:09:40.700Z,7.97
2022-11-25T23:12:11.198Z,7.55
2022-11-25T23:14:39.087Z,7.22
2022-11-25T23:17:07.514Z,8.48
2022-11-25T23:19:35.468Z,9.00
2022-11-25T23:22:03.083Z,8.20
2022-11-25T23:24:30.700Z,6.30
2022-11-25T23:26:58.303Z,7.18
2022-11-25T23:29:27.540Z,7.28
2022-11-25T23:31:55.260Z,7.68
2022-11-25T23:34:22.938Z,7.30
2022-11-25T23:36:50.687Z,8.10
2022-11-25T23:39:19.954Z,7.47
2022-11-25T23:41:47.615Z,8.70
2022-11-25T23:44:16.638Z,7.53
2022-11-25T23:46:45.719Z,6.78
2022-11-25T23:49:20.091Z,7.30
2022-11-25T23:51:47.861Z,6.88
2022-11-25T23:54:16.097Z,5.63
2022-11-25T23:56:43.899Z,7.35
2022-11-25T23:59:13.953Z,6.88
